Triana, Alabama
Current Conditions -  °F | °C
As of 11:53 AM on Friday 24 Oct 2014 (Local Time) from KHSV Reporting Station
Few Clouds Few Clouds  
Wind Chill: 21°   Ceiling: Unl
Heat Index: 21°   Visibility: 10mi
Dew Point:   Wind: 3mph
Humidity: 38%   Direction: NA
Pressure: 30.11"   Gusts: NA
Location:  34.6731°N, 86.8135°W
Report Text: KHSV 241653Z VRB03KT 10SM FEW250 21/06 A3011 RMK AO2 SLP191 T02060056
Loading
Personal Weather Stations






























Interactive Weather Map
Tropical Storm Tracking
New forecast layout! Learn more

10-Day Weather Forecast

Advertisements
Track Severe Weather on mobile